»·PEaware :: UAL7 KSFO-KBFI

UAL7 :: KSFO-KBFI

FLIGHT INFORMATION

Flight Status: Arrived
Operator:
United Airlines
More flights by this operator :: More flights under this callsign
Pilot: Wayne G. (10176)
Aircraft: BOEING 777-200
(B772)
More flights by this aircraft type
Origin: KSFO San Francisco Intl
United States
Destination: KBFI Boeing Field/King Co Intl
United States
More flights between these airports :: More routes between these airports
Route: REBAS8 RBL J1 OED J126 UBG OLM1
File this flight plan on PilotEdge
Remarks:
Altitude:
(Current/Filed)
38,000ft
Speed:
(Current/Filed)
475kts
Departed: 08-Apr-16 11:17 PM
Arrived: 09-Apr-16 12:53 AM
Distance/Time
Traveled:
595nm/1:36
Distance/Time
To Go:
Arrived

Flight Plot

Page will automatically refresh every two minutes.


Map Options




Map Legend


Flown Route
Filed Route
Departure Airport
Arrival Airport
Navaid (VOR, NDB)
Fix

Horizontal Profiles

Position Reports

Time Latitude Longitude Heading Altitude Ground
Speed
08-Apr-16 22:57 37.616457 -122.381234 17 26ft 0kts
08-Apr-16 22:58 37.616457 -122.381234 17 26ft 0kts
08-Apr-16 22:59 37.616457 -122.381234 17 26ft 0kts
08-Apr-16 23:00 37.616457 -122.381234 17 26ft 0kts
08-Apr-16 23:01 37.616457 -122.381234 17 26ft 0kts
08-Apr-16 23:02 37.615958 -122.381437 17 26ft 2kts
08-Apr-16 23:03 37.615687 -122.381548 17 26ft 0kts
08-Apr-16 23:04 37.615687 -122.381548 17 26ft 0kts
08-Apr-16 23:05 37.615713 -122.380697 135 26ft 6kts
08-Apr-16 23:06 37.612651 -122.382286 206 26ft 17kts
08-Apr-16 23:08 37.610665 -122.381088 23 26ft 11kts
08-Apr-16 23:09 37.643942 -122.359882 17 1682ft 226kts
08-Apr-16 23:10 37.708322 -122.361559 357 6615ft 246kts
08-Apr-16 23:11 37.782238 -122.363960 349 9902ft 282kts
08-Apr-16 23:12 37.865287 -122.374411 350 13260ft 330kts
08-Apr-16 23:13 37.964636 -122.383257 357 16747ft 378kts
08-Apr-16 23:14 38.073585 -122.377843 358 20616ft 401kts
08-Apr-16 23:15 38.188740 -122.372716 359 24060ft 425kts
08-Apr-16 23:16 38.310127 -122.361731 1 27088ft 449kts
08-Apr-16 23:17 38.423300 -122.351447 1 29503ft 469kts
08-Apr-16 23:18 38.555112 -122.339714 1 32392ft 472kts
08-Apr-16 23:19 38.685427 -122.328003 1 35105ft 465kts
08-Apr-16 23:20 38.814132 -122.313672 5 37182ft 465kts
08-Apr-16 23:21 38.943668 -122.288848 4 37595ft 468kts
08-Apr-16 23:22 39.072313 -122.265763 4 37597ft 464kts
08-Apr-16 23:23 39.200323 -122.242745 4 37594ft 465kts
08-Apr-16 23:24 39.329680 -122.221014 0 37595ft 467kts
08-Apr-16 23:25 39.458248 -122.223245 355 37596ft 462kts
08-Apr-16 23:26 39.586668 -122.226589 356 37596ft 456kts
08-Apr-16 23:27 39.714414 -122.229049 356 37594ft 457kts
08-Apr-16 23:28 39.841689 -122.231467 356 37594ft 461kts
08-Apr-16 23:29 39.970463 -122.233931 356 37597ft 459kts
08-Apr-16 23:30 40.097506 -122.237197 352 37596ft 457kts
08-Apr-16 23:31 40.221574 -122.267716 344 37596ft 451kts
08-Apr-16 23:32 40.344696 -122.303771 345 37597ft 454kts
08-Apr-16 23:33 40.469527 -122.338546 345 37600ft 458kts
08-Apr-16 23:34 40.594460 -122.373116 345 37595ft 457kts
08-Apr-16 23:35 40.718612 -122.407689 345 37596ft 457kts
08-Apr-16 23:36 40.843375 -122.442561 345 37595ft 454kts
08-Apr-16 23:37 40.967488 -122.477419 345 37594ft 459kts
08-Apr-16 23:38 41.093652 -122.512960 345 37591ft 472kts
08-Apr-16 23:39 41.223156 -122.549592 345 37598ft 474kts
08-Apr-16 23:40 41.351895 -122.586140 345 37593ft 472kts
08-Apr-16 23:41 41.478834 -122.622349 345 37594ft 472kts
08-Apr-16 23:42 41.606242 -122.658819 345 37595ft 471kts
08-Apr-16 23:43 41.734637 -122.695729 345 37591ft 473kts
08-Apr-16 23:44 41.863082 -122.732807 345 37596ft 470kts
08-Apr-16 23:45 41.991237 -122.769821 345 37593ft 469kts
08-Apr-16 23:46 42.119501 -122.807237 345 37595ft 471kts
08-Apr-16 23:47 42.247197 -122.844566 345 37592ft 469kts
08-Apr-16 23:48 42.375764 -122.882272 345 37597ft 475kts
08-Apr-16 23:49 42.504620 -122.919283 348 37594ft 471kts
08-Apr-16 23:50 42.634369 -122.942189 350 37597ft 470kts
08-Apr-16 23:51 42.764480 -122.965704 350 37596ft 470kts
08-Apr-16 23:52 42.894194 -122.989652 349 37594ft 472kts
08-Apr-16 23:53 43.024906 -123.013996 349 37593ft 473kts
08-Apr-16 23:54 43.154996 -123.038382 349 37593ft 468kts
08-Apr-16 23:55 43.285000 -123.062854 349 37596ft 471kts
08-Apr-16 23:56 43.416000 -123.087624 349 37591ft 474kts
08-Apr-16 23:57 43.545649 -123.112231 349 37593ft 474kts
08-Apr-16 23:58 43.676455 -123.137171 349 37593ft 473kts
08-Apr-16 23:59 43.806481 -123.162092 350 37595ft 468kts
09-Apr-16 00:00 43.935993 -123.186951 349 37598ft 471kts
09-Apr-16 00:01 44.067990 -123.212518 349 37594ft 480kts
09-Apr-16 00:02 44.199727 -123.208524 4 37598ft 476kts
09-Apr-16 00:02 44.309974 -123.186102 5 37594ft 482kts
09-Apr-16 00:04 44.464031 -123.155595 5 37598ft 477kts
09-Apr-16 00:05 44.596134 -123.129688 5 37592ft 479kts
09-Apr-16 00:05 44.706620 -123.107845 5 37597ft 481kts
09-Apr-16 00:06 44.839769 -123.081402 5 37594ft 479kts
09-Apr-16 00:07 44.971727 -123.055044 5 37593ft 480kts
09-Apr-16 00:08 45.103035 -123.028823 5 36929ft 471kts
09-Apr-16 00:09 45.231692 -123.002851 4 35821ft 462kts
09-Apr-16 00:10 45.358457 -122.977506 3 34634ft 454kts
09-Apr-16 00:11 45.483371 -122.970766 357 33507ft 445kts
09-Apr-16 00:12 45.606201 -122.966363 358 32500ft 435kts
09-Apr-16 00:13 45.726217 -122.960934 358 31483ft 426kts
09-Apr-16 00:14 45.843692 -122.955524 358 30422ft 418kts
09-Apr-16 00:16 45.959927 -122.950099 358 29274ft 413kts
09-Apr-16 00:17 46.074039 -122.944762 358 28172ft 406kts
09-Apr-16 00:18 46.186963 -122.939439 358 27028ft 402kts
09-Apr-16 00:19 46.297793 -122.934201 358 26044ft 395kts
09-Apr-16 00:20 46.406633 -122.929023 358 25239ft 385kts
09-Apr-16 00:21 46.513724 -122.923899 358 24110ft 386kts
09-Apr-16 00:22 46.619569 -122.918839 358 23371ft 376kts
09-Apr-16 00:23 46.723128 -122.913884 358 22531ft 370kts
09-Apr-16 00:24 46.825895 -122.908911 358 21687ft 366kts
09-Apr-16 00:25 46.929923 -122.903505 1 19557ft 389kts
09-Apr-16 00:26 47.029648 -122.835014 34 16252ft 392kts
09-Apr-16 00:27 47.104178 -122.731365 35 12967ft 349kts
09-Apr-16 00:28 47.174093 -122.643513 36 11270ft 300kts
09-Apr-16 00:29 47.233809 -122.566717 35 10901ft 289kts
09-Apr-16 00:30 47.291606 -122.492153 35 9059ft 267kts
09-Apr-16 00:31 47.315609 -122.396857 85 7159ft 275kts
09-Apr-16 00:32 47.266559 -122.324566 166 6122ft 280kts
09-Apr-16 00:33 47.194397 -122.290318 149 4664ft 271kts
09-Apr-16 00:34 47.167138 -122.196372 90 2837ft 258kts
09-Apr-16 00:35 47.202426 -122.119066 18 2593ft 246kts
09-Apr-16 00:36 47.259755 -122.084555 2 2577ft 189kts
09-Apr-16 00:37 47.301553 -122.110208 326 2722ft 171kts
09-Apr-16 00:38 47.339008 -122.141683 326 2630ft 163kts
09-Apr-16 00:39 47.376654 -122.173292 326 2596ft 149kts
09-Apr-16 00:40 47.412599 -122.203501 326 2487ft 144kts
09-Apr-16 00:41 47.445472 -122.231166 326 1707ft 128kts
09-Apr-16 00:42 47.476530 -122.257339 327 1008ft 130kts
09-Apr-16 00:43 47.508216 -122.284075 328 289ft 131kts
09-Apr-16 00:44 47.531838 -122.304062 329 32ft 46kts
09-Apr-16 00:45 47.533797 -122.306442 239 31ft 3kts
09-Apr-16 00:46 47.533909 -122.309710 333 31ft 12kts
09-Apr-16 00:47 47.534411 -122.309001 60 31ft 0kts
09-Apr-16 00:48 47.534411 -122.309001 60 31ft 0kts
09-Apr-16 00:49 47.534411 -122.309001 60 31ft 0kts
09-Apr-16 00:50 47.534411 -122.309001 60 31ft 0kts

Navigation Log

Ident Type
1. KSFO Airport
2. REBAS Fix
3. SGD Navaid
4. WUSHU Fix
5. DALON Fix
6. MXW Navaid
7. RBL Navaid
8. HANDY Fix
9. OED Navaid
10. EUG Navaid
11. UBG Navaid
12. OLM Navaid
13. LACEE Fix
14. ARVAD Fix
15. FOURT Fix
16. KBFI Airport